createdAt,value
2018-09-20T00:01:25.891Z,17.73
2018-09-20T00:03:53.031Z,16.83
2018-09-20T00:06:20.169Z,16.63
2018-09-20T00:08:47.315Z,17.77
2018-09-20T00:11:14.444Z,17.87
2018-09-20T00:13:41.563Z,17.73
2018-09-20T00:16:08.696Z,19.10
2018-09-20T00:18:35.824Z,20.33
2018-09-20T00:21:03.018Z,20.20
2018-09-20T00:23:30.584Z,26.07
2018-09-20T00:25:57.712Z,23.20
2018-09-20T00:28:24.861Z,26.67
2018-09-20T00:30:52.000Z,29.07
2018-09-20T00:33:19.160Z,27.43
2018-09-20T00:35:46.283Z,28.03
2018-09-20T00:38:13.428Z,23.97
2018-09-20T00:40:40.560Z,25.33
2018-09-20T00:43:07.688Z,27.03
2018-09-20T00:45:34.812Z,20.10
2018-09-20T00:48:01.993Z,20.23
2018-09-20T00:50:29.132Z,20.07
2018-09-20T00:52:56.264Z,21.70
2018-09-20T00:55:23.388Z,22.90
2018-09-20T00:57:50.592Z,17.13
2018-09-20T01:00:17.733Z,15.77
2018-09-20T01:02:44.912Z,18.70
2018-09-20T01:05:12.121Z,15.63
2018-09-20T01:07:39.288Z,18.77
2018-09-20T01:10:06.432Z,16.77
2018-09-20T01:12:33.576Z,19.00
2018-09-20T01:15:00.693Z,16.63
2018-09-20T01:17:27.834Z,20.37
2018-09-20T01:19:54.964Z,17.43
2018-09-20T01:22:22.108Z,15.60
2018-09-20T01:24:49.236Z,17.00
2018-09-20T01:27:16.360Z,15.50
2018-09-20T01:29:43.484Z,17.50
2018-09-20T01:32:10.612Z,18.70
2018-09-20T01:34:37.768Z,13.47
2018-09-20T01:37:04.975Z,17.57
2018-09-20T01:39:32.112Z,16.20
2018-09-20T01:41:59.208Z,16.97
2018-09-20T01:44:26.345Z,14.77
2018-09-20T01:46:53.477Z,20.83
2018-09-20T01:49:20.621Z,18.20
2018-09-20T01:51:47.765Z,14.30
2018-09-20T01:54:14.883Z,19.73
2018-09-20T01:56:42.025Z,18.30
2018-09-20T01:59:09.150Z,16.13
2018-09-20T02:01:36.285Z,15.67
2018-09-20T02:04:03.413Z,15.93
2018-09-20T02:06:30.569Z,15.30
2018-09-20T02:08:57.744Z,20.00
2018-09-20T02:11:24.876Z,18.80
2018-09-20T02:13:52.003Z,18.47
2018-09-20T02:16:19.148Z,18.57
2018-09-20T02:18:46.288Z,23.37
2018-09-20T02:21:13.604Z,21.87
2018-09-20T02:23:40.756Z,18.53
2018-09-20T02:26:07.932Z,19.83
2018-09-20T02:28:35.052Z,21.40
2018-09-20T02:31:02.224Z,20.77
2018-09-20T02:33:29.343Z,20.27
2018-09-20T02:35:56.507Z,23.33
2018-09-20T02:38:23.637Z,24.57
2018-09-20T02:40:50.757Z,20.73
2018-09-20T02:43:17.880Z,22.60
2018-09-20T02:45:45.000Z,21.37
2018-09-20T02:48:12.128Z,18.53
2018-09-20T02:50:39.244Z,22.50
2018-09-20T02:53:06.392Z,23.90
2018-09-20T02:55:33.560Z,20.50
2018-09-20T02:58:00.680Z,22.77
2018-09-20T03:00:27.836Z,24.57
2018-09-20T03:02:54.968Z,20.70
2018-09-20T03:05:22.128Z,22.30
2018-09-20T03:07:49.256Z,24.40
2018-09-20T03:10:16.404Z,19.60
2018-09-20T03:12:43.532Z,23.53
2018-09-20T03:15:10.644Z,20.63
2018-09-20T03:17:37.850Z,22.77
2018-09-20T03:20:05.116Z,16.93
2018-09-20T03:22:32.224Z,20.50
2018-09-20T03:24:59.352Z,17.23
2018-09-20T03:27:26.488Z,18.57
2018-09-20T03:29:53.628Z,19.53
2018-09-20T03:32:20.752Z,18.77
2018-09-20T03:34:47.888Z,16.87
2018-09-20T03:37:15.026Z,17.50
2018-09-20T03:39:42.189Z,15.10
2018-09-20T03:42:09.296Z,19.30
2018-09-20T03:44:36.441Z,18.40
2018-09-20T03:47:03.584Z,17.83
2018-09-20T03:49:30.720Z,16.33
2018-09-20T03:51:57.841Z,17.00
2018-09-20T03:54:25.060Z,15.47
2018-09-20T03:56:52.192Z,19.07
2018-09-20T03:59:19.356Z,17.67
2018-09-20T04:01:46.489Z,17.40
2018-09-20T04:04:13.616Z,15.97
2018-09-20T04:06:40.746Z,15.00
2018-09-20T04:09:09.044Z,16.47
2018-09-20T04:11:36.248Z,19.73
2018-09-20T04:14:03.401Z,15.43
2018-09-20T04:16:30.524Z,16.47
2018-09-20T04:18:57.669Z,17.53
2018-09-20T04:21:32.380Z,18.53
2018-09-20T04:24:00.761Z,16.53
2018-09-20T04:26:28.504Z,19.10
2018-09-20T04:28:55.780Z,15.60
2018-09-20T04:31:22.977Z,18.07
2018-09-20T04:33:50.095Z,22.33
2018-09-20T04:36:17.217Z,16.97
2018-09-20T04:38:44.357Z,17.10
2018-09-20T04:41:11.508Z,15.77
2018-09-20T04:43:38.627Z,14.80
2018-09-20T04:46:05.768Z,16.03
2018-09-20T04:48:32.892Z,18.10
2018-09-20T04:51:00.021Z,17.20
2018-09-20T04:53:27.182Z,17.47
2018-09-20T04:55:54.281Z,19.00
2018-09-20T04:58:21.402Z,15.73
2018-09-20T05:00:48.578Z,17.80
2018-09-20T05:03:15.725Z,17.80
2018-09-20T05:05:42.848Z,15.77
2018-09-20T05:08:09.972Z,16.23
2018-09-20T05:10:37.112Z,17.97
2018-09-20T05:13:04.261Z,17.53
2018-09-20T05:15:31.384Z,16.43
2018-09-20T05:17:58.525Z,20.97
2018-09-20T05:20:25.640Z,16.67
2018-09-20T05:22:52.764Z,17.60
2018-09-20T05:25:19.889Z,16.30
2018-09-20T05:27:47.032Z,18.20
2018-09-20T05:30:17.552Z,14.13
2018-09-20T05:32:44.703Z,20.73
2018-09-20T05:35:11.836Z,21.07
2018-09-20T05:37:38.965Z,16.33
2018-09-20T05:40:06.152Z,23.00
2018-09-20T05:42:33.369Z,19.30
2018-09-20T05:45:00.528Z,17.97
2018-09-20T05:47:27.657Z,18.40
2018-09-20T05:49:54.836Z,19.93
2018-09-20T05:52:21.973Z,17.00
2018-09-20T05:54:49.105Z,17.07
2018-09-20T05:57:16.364Z,19.30
2018-09-20T05:59:43.545Z,20.73
2018-09-20T06:02:10.708Z,17.37
2018-09-20T06:04:38.028Z,18.77
2018-09-20T06:07:05.164Z,19.17
2018-09-20T06:09:32.288Z,17.60
2018-09-20T06:11:59.508Z,17.53
2018-09-20T06:14:26.668Z,14.87
2018-09-20T06:16:53.805Z,18.87
2018-09-20T06:19:20.936Z,16.77
2018-09-20T06:21:48.088Z,17.20
2018-09-20T06:24:15.236Z,14.87
2018-09-20T06:26:42.460Z,18.37
2018-09-20T06:29:09.664Z,17.63
2018-09-20T06:31:36.834Z,17.43
2018-09-20T06:34:03.988Z,15.43
2018-09-20T06:36:31.136Z,14.43
2018-09-20T06:38:58.312Z,16.13
2018-09-20T06:41:25.436Z,17.67
2018-09-20T06:43:52.593Z,18.60
2018-09-20T06:46:19.745Z,15.80
2018-09-20T06:48:46.890Z,20.70
2018-09-20T06:51:14.112Z,17.30
2018-09-20T06:53:41.252Z,20.00
2018-09-20T06:56:08.385Z,18.83
2018-09-20T06:58:35.509Z,16.40
2018-09-20T07:01:02.648Z,15.67
2018-09-20T07:03:29.799Z,18.73
2018-09-20T07:05:56.928Z,18.07
2018-09-20T07:08:24.074Z,17.77
2018-09-20T07:10:51.201Z,19.17
2018-09-20T07:13:18.341Z,19.10
2018-09-20T07:15:45.490Z,21.20
2018-09-20T07:18:12.628Z,16.80
2018-09-20T07:20:39.745Z,16.83
2018-09-20T07:23:07.173Z,19.87
2018-09-20T07:25:34.384Z,21.90
2018-09-20T07:28:01.538Z,18.17
2018-09-20T07:30:28.732Z,20.07
2018-09-20T07:32:55.915Z,19.10
2018-09-20T07:35:23.037Z,17.37
2018-09-20T07:37:50.158Z,18.10
2018-09-20T07:40:17.288Z,17.40
2018-09-20T07:42:44.428Z,20.70
2018-09-20T07:45:11.577Z,17.83
2018-09-20T07:47:38.717Z,17.80
2018-09-20T07:50:05.928Z,12.43
2018-09-20T07:52:33.080Z,16.37
2018-09-20T07:55:00.316Z,13.50
2018-09-20T07:57:29.322Z,16.97
2018-09-20T07:59:57.432Z,17.63
2018-09-20T08:02:24.561Z,15.07
2018-09-20T08:04:51.692Z,15.70
2018-09-20T08:07:18.840Z,17.37
2018-09-20T08:09:45.980Z,11.33
2018-09-20T08:12:13.104Z,14.90
2018-09-20T08:14:40.236Z,17.20
2018-09-20T08:17:07.369Z,12.23
2018-09-20T08:19:34.524Z,19.40
2018-09-20T08:22:01.669Z,18.33
2018-09-20T08:24:28.786Z,13.43
2018-09-20T08:26:55.921Z,14.73
2018-09-20T08:29:23.052Z,14.83
2018-09-20T08:31:50.185Z,14.30
2018-09-20T08:34:17.341Z,17.97
2018-09-20T08:36:44.494Z,21.07
2018-09-20T08:39:12.407Z,10.97
2018-09-20T08:41:39.858Z,16.40
2018-09-20T08:44:07.520Z,15.47
2018-09-20T08:46:34.672Z,10.70
2018-09-20T08:49:02.113Z,11.20
2018-09-20T08:51:29.249Z,14.50
2018-09-20T08:53:56.397Z,16.67
2018-09-20T08:56:23.661Z,11.33
2018-09-20T08:58:50.805Z,17.57
2018-09-20T09:01:17.970Z,12.87
2018-09-20T09:03:45.182Z,18.10
2018-09-20T09:06:12.312Z,17.50
2018-09-20T09:08:39.502Z,16.30
2018-09-20T09:11:06.644Z,18.67
2018-09-20T09:13:33.776Z,12.63
2018-09-20T09:16:00.924Z,12.50
2018-09-20T09:18:28.049Z,10.33
2018-09-20T09:20:55.220Z,11.63
2018-09-20T09:23:22.391Z,10.63
2018-09-20T09:25:49.492Z,15.13
2018-09-20T09:28:16.606Z,12.37
2018-09-20T09:30:43.788Z,16.67
2018-09-20T09:33:10.916Z,13.97
2018-09-20T09:35:38.064Z,13.20
2018-09-20T09:38:05.167Z,17.17
2018-09-20T09:40:32.279Z,12.90
2018-09-20T09:42:59.484Z,12.37
2018-09-20T09:45:26.604Z,16.67
2018-09-20T09:47:53.717Z,14.73
2018-09-20T09:50:20.863Z,14.03
2018-09-20T09:52:48.014Z,16.27
2018-09-20T09:55:15.164Z,12.63
2018-09-20T09:57:42.316Z,12.27
2018-09-20T10:00:09.473Z,12.70
2018-09-20T10:02:36.654Z,16.00
2018-09-20T10:05:03.773Z,18.50
2018-09-20T10:07:30.872Z,11.37
2018-09-20T10:09:58.076Z,9.70
2018-09-20T10:12:25.181Z,14.90
2018-09-20T10:14:52.304Z,12.87
2018-09-20T10:17:19.434Z,15.53
2018-09-20T10:19:46.587Z,13.73
2018-09-20T10:22:13.703Z,11.43
2018-09-20T10:24:40.833Z,13.00
2018-09-20T10:27:07.989Z,12.23
2018-09-20T10:29:35.112Z,12.03
2018-09-20T10:32:02.281Z,14.40
2018-09-20T10:34:29.431Z,7.93
2018-09-20T10:36:56.537Z,12.67
2018-09-20T10:39:23.673Z,12.45
2018-09-20T10:41:50.780Z,9.20
2018-09-20T10:44:17.904Z,9.47
2018-09-20T10:46:45.005Z,11.50
2018-09-20T10:49:12.151Z,10.10
2018-09-20T10:51:39.353Z,12.20
2018-09-20T10:54:06.493Z,11.33
2018-09-20T10:56:33.712Z,9.50
2018-09-20T10:59:00.876Z,11.87
2018-09-20T11:01:28.007Z,14.43
2018-09-20T11:03:55.150Z,11.07
2018-09-20T11:06:22.284Z,12.43
2018-09-20T11:08:49.415Z,9.33
2018-09-20T11:11:16.573Z,7.17
2018-09-20T11:13:43.700Z,15.50
2018-09-20T11:16:11.270Z,8.63
2018-09-20T11:18:38.397Z,14.53
2018-09-20T11:21:05.517Z,7.00
2018-09-20T11:23:32.634Z,9.30
2018-09-20T11:25:59.810Z,12.27
2018-09-20T11:28:26.924Z,11.97
2018-09-20T11:30:54.061Z,12.00
2018-09-20T11:33:21.168Z,8.97
2018-09-20T11:35:48.298Z,12.10
2018-09-20T11:38:15.468Z,9.10
2018-09-20T11:40:42.595Z,8.90
2018-09-20T11:43:09.856Z,9.53
2018-09-20T11:45:37.005Z,8.05
2018-09-20T11:48:04.181Z,10.90
2018-09-20T11:50:31.304Z,11.27
2018-09-20T11:52:58.404Z,8.37
2018-09-20T11:55:25.522Z,7.77
2018-09-20T11:57:52.679Z,10.40
2018-09-20T12:00:20.997Z,10.20
2018-09-20T12:02:49.080Z,12.50
2018-09-20T12:05:16.217Z,11.35
2018-09-20T12:07:43.366Z,10.80
2018-09-20T12:10:10.481Z,10.55
2018-09-20T12:12:37.605Z,12.45
2018-09-20T12:15:04.757Z,9.50
2018-09-20T12:17:31.888Z,9.43
2018-09-20T12:19:59.045Z,8.70
2018-09-20T12:22:26.136Z,11.90
2018-09-20T12:24:53.254Z,13.35
2018-09-20T12:27:20.356Z,11.10
2018-09-20T12:29:47.456Z,9.00
2018-09-20T12:32:14.639Z,11.00
2018-09-20T12:34:41.780Z,7.95
2018-09-20T12:39:35.644Z,11.63
2018-09-20T12:44:29.413Z,10.13
2018-09-20T12:49:23.189Z,11.20
2018-09-20T12:51:50.305Z,11.30
2018-09-20T12:54:17.410Z,12.33
2018-09-20T12:56:44.555Z,9.30
2018-09-20T13:01:38.320Z,7.80
2018-09-20T13:04:05.539Z,8.75
2018-09-20T13:06:32.750Z,11.53
2018-09-20T13:08:59.884Z,9.87
2018-09-20T13:11:27.003Z,6.73
2018-09-20T13:13:54.152Z,8.80
2018-09-20T13:16:21.281Z,11.30
2018-09-20T13:18:48.376Z,9.35
2018-09-20T13:21:15.500Z,8.35
2018-09-20T13:23:42.612Z,7.60
2018-09-20T13:26:09.849Z,6.97
2018-09-20T13:28:36.973Z,10.47
2018-09-20T13:31:04.112Z,10.60
2018-09-20T13:33:31.236Z,8.10
2018-09-20T13:40:51.648Z,8.80
2018-09-20T13:43:18.851Z,9.90
2018-09-20T13:50:39.256Z,8.70
2018-09-20T13:53:06.476Z,6.90
2018-09-20T13:55:33.593Z,8.85
2018-09-20T13:58:00.724Z,7.30
2018-09-20T14:00:27.877Z,7.40
2018-09-20T14:02:55.201Z,11.30
2018-09-20T14:05:22.505Z,9.10
2018-09-20T14:07:49.609Z,6.95
2018-09-20T14:10:16.749Z,6.40
2018-09-20T14:12:43.939Z,10.95
2018-09-20T14:15:11.056Z,6.10
2018-09-20T14:17:38.189Z,10.03
2018-09-20T14:20:05.349Z,7.70
2018-09-20T14:22:32.445Z,6.80
2018-09-20T14:24:59.573Z,9.17
2018-09-20T14:27:26.685Z,6.07
2018-09-20T14:29:53.788Z,7.90
2018-09-20T14:32:20.906Z,7.87
2018-09-20T14:34:48.049Z,9.37
2018-09-20T14:37:15.188Z,12.73
2018-09-20T14:39:42.401Z,11.53
2018-09-20T14:42:09.493Z,9.63
2018-09-20T14:44:36.624Z,7.60
2018-09-20T14:47:03.769Z,6.53
2018-09-20T14:49:30.883Z,10.67
2018-09-20T14:51:58.056Z,7.83
2018-09-20T14:54:25.159Z,10.97
2018-09-20T14:56:52.284Z,10.40
2018-09-20T14:59:19.400Z,12.53
2018-09-20T15:01:46.533Z,15.90
2018-09-20T15:04:13.631Z,13.67
2018-09-20T15:06:40.734Z,13.87
2018-09-20T15:09:09.240Z,9.93
2018-09-20T15:11:36.382Z,11.03
2018-09-20T15:14:03.504Z,10.93
2018-09-20T15:16:30.698Z,9.67
2018-09-20T15:18:57.810Z,10.53
2018-09-20T15:21:24.904Z,12.77
2018-09-20T15:23:52.040Z,10.50
2018-09-20T15:26:19.176Z,9.03
2018-09-20T15:28:46.309Z,10.90
2018-09-20T15:31:13.436Z,10.07
2018-09-20T15:33:40.578Z,9.27
2018-09-20T15:36:08.125Z,7.73
2018-09-20T15:38:35.242Z,6.83
2018-09-20T15:41:02.521Z,10.60
2018-09-20T15:43:29.645Z,13.23
2018-09-20T15:45:56.750Z,12.57
2018-09-20T15:48:23.869Z,10.67
2018-09-20T15:50:51.022Z,12.85
2018-09-20T15:53:18.145Z,9.90
2018-09-20T15:55:45.256Z,10.07
2018-09-20T15:58:12.377Z,9.27
2018-09-20T16:00:39.468Z,8.57
2018-09-20T16:03:06.581Z,8.57
2018-09-20T16:05:33.693Z,6.43
2018-09-20T16:08:00.792Z,6.60
2018-09-20T16:10:27.949Z,8.70
2018-09-20T16:12:55.044Z,8.80
2018-09-20T16:15:22.145Z,10.65
2018-09-20T16:17:49.252Z,12.33
2018-09-20T16:20:48.467Z,12.40
2018-09-20T16:23:15.584Z,9.15
2018-09-20T16:25:42.709Z,10.65
2018-09-20T16:28:21.791Z,11.27
2018-09-20T16:31:08.385Z,6.70
2018-09-20T16:34:47.378Z,8.87
2018-09-20T16:37:26.853Z,8.30
2018-09-20T16:39:56.256Z,5.67
2018-09-20T16:42:25.709Z,6.37
2018-09-20T16:44:52.869Z,9.90
2018-09-20T16:47:19.969Z,5.97
2018-09-20T16:49:47.097Z,7.80
2018-09-20T16:52:14.238Z,4.85
2018-09-20T16:54:41.381Z,8.33
2018-09-20T16:57:08.527Z,6.00
2018-09-20T16:59:35.650Z,7.37
2018-09-20T17:02:02.764Z,7.20
2018-09-20T17:04:29.876Z,7.50
2018-09-20T17:06:56.972Z,6.20
2018-09-20T17:09:24.073Z,7.80
2018-09-20T17:11:51.184Z,9.75
2018-09-20T17:14:18.320Z,6.10
2018-09-20T17:16:45.443Z,7.10
2018-09-20T17:19:12.485Z,7.35
2018-09-20T17:21:39.590Z,8.30
2018-09-20T17:24:06.694Z,7.80
2018-09-20T17:26:33.805Z,7.20
2018-09-20T17:29:00.908Z,8.17
2018-09-20T17:31:28.022Z,12.90
2018-09-20T17:33:55.128Z,8.40
2018-09-20T17:36:22.587Z,7.90
2018-09-20T17:38:50.572Z,8.40
2018-09-20T17:41:21.079Z,7.53
2018-09-20T17:43:52.053Z,10.60
2018-09-20T17:46:19.189Z,7.03
2018-09-20T17:48:46.289Z,6.60
2018-09-20T17:51:14.598Z,8.70
2018-09-20T17:53:42.580Z,6.33
2018-09-20T17:56:10.393Z,8.90
2018-09-20T17:58:37.997Z,8.23
2018-09-20T18:01:05.208Z,6.27
2018-09-20T18:03:32.309Z,7.77
2018-09-20T18:05:59.417Z,7.87
2018-09-20T18:08:26.516Z,8.57
2018-09-20T18:10:53.608Z,7.90
2018-09-20T18:13:20.706Z,9.47
2018-09-20T18:15:47.837Z,6.40
2018-09-20T18:18:14.970Z,7.70
2018-09-20T18:20:42.050Z,6.90
2018-09-20T18:23:09.432Z,10.27
2018-09-20T18:25:36.557Z,8.73
2018-09-20T18:28:03.641Z,7.20
2018-09-20T18:30:30.755Z,9.07
2018-09-20T18:32:57.865Z,10.93
2018-09-20T18:35:25.010Z,8.90
2018-09-20T18:37:52.152Z,6.87
2018-09-20T18:40:19.293Z,9.63
2018-09-20T18:45:28.253Z,7.40
2018-09-20T18:47:55.341Z,9.00
2018-09-20T18:50:22.449Z,8.10
2018-09-20T18:52:49.554Z,9.47
2018-09-20T18:55:16.667Z,8.10
2018-09-20T18:57:43.760Z,6.10
2018-09-20T19:00:10.873Z,6.45
2018-09-20T19:02:38.570Z,6.70
2018-09-20T19:05:05.692Z,8.23
2018-09-20T19:07:32.856Z,7.70
2018-09-20T19:09:59.917Z,8.90
2018-09-20T19:12:27.016Z,11.40
2018-09-20T19:14:54.107Z,10.10
2018-09-20T19:17:21.517Z,7.60
2018-09-20T19:19:48.624Z,8.90
2018-09-20T19:22:15.750Z,8.70
2018-09-20T19:24:42.876Z,10.70
2018-09-20T19:27:09.970Z,10.00
2018-09-20T19:29:37.070Z,7.30
2018-09-20T19:32:04.247Z,6.80
2018-09-20T19:34:31.286Z,9.20
2018-09-20T19:36:58.378Z,8.50
2018-09-20T19:39:25.486Z,10.50
2018-09-20T19:41:52.588Z,8.10
2018-09-20T19:46:46.353Z,9.07
2018-09-20T19:49:13.468Z,7.03
2018-09-20T19:51:40.630Z,8.57
2018-09-20T19:54:07.705Z,5.10
2018-09-20T19:56:34.885Z,10.30
2018-09-20T19:59:02.204Z,7.47
2018-09-20T20:01:29.965Z,8.65
2018-09-20T20:03:58.112Z,6.60
2018-09-20T20:06:26.964Z,7.55
2018-09-20T20:08:54.113Z,7.80
2018-09-20T20:11:21.532Z,7.20
2018-09-20T20:13:48.676Z,10.40
2018-09-20T20:16:15.781Z,9.47
2018-09-20T20:18:42.884Z,7.27
2018-09-20T20:21:09.990Z,9.40
2018-09-20T20:23:37.088Z,8.33
2018-09-20T20:26:04.253Z,8.33
2018-09-20T20:28:31.420Z,8.40
2018-09-20T20:30:58.429Z,11.33
2018-09-20T20:33:25.531Z,8.33
2018-09-20T20:35:52.645Z,10.07
2018-09-20T20:38:19.786Z,10.85
2018-09-20T20:40:46.859Z,7.80
2018-09-20T20:43:13.976Z,7.70
2018-09-20T20:45:41.078Z,10.60
2018-09-20T20:48:08.177Z,9.87
2018-09-20T20:50:35.297Z,7.73
2018-09-20T20:53:02.442Z,9.70
2018-09-20T20:55:29.502Z,8.30
2018-09-20T20:57:56.628Z,12.83
2018-09-20T21:00:23.713Z,8.33
2018-09-20T21:02:50.820Z,9.77
2018-09-20T21:05:17.932Z,10.03
2018-09-20T21:07:45.037Z,5.83
2018-09-20T21:10:12.160Z,9.63
2018-09-20T21:12:39.264Z,9.17
2018-09-20T21:15:06.402Z,7.40
2018-09-20T21:17:33.585Z,10.40
2018-09-20T21:20:00.647Z,11.67
2018-09-20T21:22:27.756Z,8.10
2018-09-20T21:24:54.840Z,9.63
2018-09-20T21:27:21.936Z,9.13
2018-09-20T21:29:49.042Z,7.70
2018-09-20T21:32:16.145Z,9.93
2018-09-20T21:34:43.268Z,10.00
2018-09-20T21:37:10.377Z,8.20
2018-09-20T21:39:37.517Z,9.20
2018-09-20T21:42:04.633Z,9.63
2018-09-20T21:44:31.736Z,11.20
2018-09-20T21:46:58.844Z,10.90
2018-09-20T21:49:25.974Z,9.43
2018-09-20T21:51:53.101Z,7.20
2018-09-20T21:54:20.198Z,8.60
2018-09-20T21:56:47.298Z,9.45
2018-09-20T21:59:14.449Z,12.85
2018-09-20T22:01:47.376Z,9.70
2018-09-20T22:04:14.500Z,11.00
2018-09-20T22:06:41.585Z,9.15
2018-09-20T22:09:09.980Z,11.35
2018-09-20T22:11:37.424Z,8.25
2018-09-20T22:14:04.524Z,11.50
2018-09-20T22:16:31.644Z,9.00
2018-09-20T22:18:58.728Z,10.30
2018-09-20T22:21:25.869Z,6.70
2018-09-20T22:23:52.973Z,9.60
2018-09-20T22:26:20.249Z,7.50
2018-09-20T22:31:13.973Z,7.90
2018-09-20T22:33:41.064Z,10.40
2018-09-20T22:36:08.182Z,9.50
2018-09-20T22:38:35.284Z,11.40
2018-09-20T22:41:02.392Z,11.70
2018-09-20T22:43:29.496Z,9.45
2018-09-20T22:45:56.593Z,10.60
2018-09-20T22:48:23.709Z,7.43
2018-09-20T22:50:50.818Z,10.20
2018-09-20T22:53:17.925Z,8.70
2018-09-20T22:55:45.042Z,10.20
2018-09-20T22:58:12.153Z,11.55
2018-09-20T23:00:39.272Z,11.00
2018-09-20T23:03:06.382Z,7.53
2018-09-20T23:05:33.529Z,9.77
2018-09-20T23:08:00.620Z,10.37
2018-09-20T23:10:27.720Z,9.00
2018-09-20T23:12:54.809Z,8.70
2018-09-20T23:15:21.913Z,11.10
2018-09-20T23:17:49.004Z,9.50
2018-09-20T23:20:16.148Z,9.50
2018-09-20T23:22:43.248Z,8.20
2018-09-20T23:25:10.349Z,8.60
2018-09-20T23:27:37.452Z,13.40
2018-09-20T23:30:04.572Z,10.97
2018-09-20T23:32:31.661Z,9.70
2018-09-20T23:34:58.893Z,11.45
2018-09-20T23:37:26.155Z,7.70
2018-09-20T23:39:53.435Z,8.45
2018-09-20T23:42:20.687Z,9.80
2018-09-20T23:44:47.950Z,7.80
2018-09-20T23:47:15.827Z,11.60
2018-09-20T23:49:43.674Z,7.60
2018-09-20T23:52:11.026Z,9.05
2018-09-20T23:54:38.302Z,12.03
2018-09-20T23:57:05.678Z,9.57
2018-09-20T23:59:33.694Z,7.73
